McDowell, Virginia
Current Conditions -  °F | °C
As of 8:35 PM on Monday 24 Nov 2014 (Local Time) from KVBW Reporting Station
Clear Clear  
Wind Chill: 62°   Ceiling: Unl
Heat Index: 62°   Visibility: 10mi
Dew Point: 50°   Wind: 13mph
Humidity: 66%   Direction: 190°S
Pressure: 29.73"   Gusts: 18mph
Location:  38.34°N, 79.49°W
Report Text: KVBW 250135Z AUTO 19011G16KT 10SM CLR 17/10 A2973 RMK AO2 T01660102
Loading
Personal Weather Stations






























Interactive Weather Map New forecast layout! Learn more

10-Day Weather Forecast

Advertisements
Track Severe Weather on mobile